N638ZB KMHT-KACK
Flight info
| Callsign | N638ZB |
|---|---|
| Flight time | 0h 40m |
| Altitude | 21000 |
| Route | PSM SCUPP/N0271F200 LFV |
| Aircraft | SF50/L-BDGRSWY/LB2U2 |
Departure
| Time | 2026-04-26 05:03 |
|---|---|
| Airport | Manchester-Boston Regional Airport (KMHT) |
Arrival
| Time | 2026-04-26 05:43 |
|---|---|
| Airport | Nantucket Memorial Airport (KACK) |
| Time | Latitude | Longitude | Altitude | Speed | Heading |
|---|---|---|---|---|---|
| 2026-04-26 04:50 | 42.92657 | -71.43565 | 233 ft | 0 kts | 116° |
| 2026-04-26 04:56 | 42.92656 | -71.43563 | 233 ft | 2 kts | 170° |
| 2026-04-26 04:56 | 42.92664 | -71.43581 | 233 ft | 0 kts | 321° |
| 2026-04-26 04:57 | 42.92684 | -71.43582 | 234 ft | 9 kts | 24° |
| 2026-04-26 04:57 | 42.92701 | -71.43510 | 234 ft | 7 kts | 122° |
| 2026-04-26 04:57 | 42.92667 | -71.43473 | 235 ft | 7 kts | 139° |
| 2026-04-26 04:57 | 42.92657 | -71.43396 | 236 ft | 11 kts | 68° |
| 2026-04-26 04:58 | 42.92688 | -71.43299 | 237 ft | 10 kts | 67° |
| 2026-04-26 04:58 | 42.92673 | -71.43230 | 237 ft | 7 kts | 151° |
| 2026-04-26 04:58 | 42.92618 | -71.43196 | 238 ft | 10 kts | 156° |
| 2026-04-26 04:58 | 42.92546 | -71.43152 | 239 ft | 12 kts | 156° |
| 2026-04-26 04:59 | 42.92467 | -71.43104 | 241 ft | 13 kts | 156° |
| 2026-04-26 04:59 | 42.92386 | -71.43055 | 243 ft | 12 kts | 157° |
| 2026-04-26 04:59 | 42.92324 | -71.43018 | 244 ft | 8 kts | 157° |
| 2026-04-26 04:59 | 42.92267 | -71.42983 | 245 ft | 10 kts | 156° |
| 2026-04-26 05:00 | 42.92201 | -71.42944 | 247 ft | 11 kts | 156° |
| 2026-04-26 05:00 | 42.92143 | -71.42911 | 248 ft | 7 kts | 164° |
| 2026-04-26 05:00 | 42.92092 | -71.42907 | 249 ft | 9 kts | 180° |
| 2026-04-26 05:00 | 42.92021 | -71.42908 | 249 ft | 10 kts | 182° |
| 2026-04-26 05:01 | 42.91983 | -71.42909 | 250 ft | 7 kts | 180° |
| 2026-04-26 05:01 | 42.91934 | -71.42910 | 251 ft | 8 kts | 181° |
| 2026-04-26 05:01 | 42.91874 | -71.42886 | 252 ft | 11 kts | 125° |
| 2026-04-26 05:01 | 42.91875 | -71.42813 | 252 ft | 0 kts | 68° |
| 2026-04-26 05:02 | 42.91889 | -71.42772 | 252 ft | 10 kts | 66° |
| 2026-04-26 05:02 | 42.91918 | -71.42682 | 252 ft | 10 kts | 59° |
| 2026-04-26 05:02 | 42.91993 | -71.42663 | 251 ft | 15 kts | 335° |
| 2026-04-26 05:03 | 42.92288 | -71.42837 | 245 ft | 80 kts | 336° |
| 2026-04-26 05:03 | 42.92975 | -71.43235 | 280 ft | 129 kts | 338° |
| 2026-04-26 05:03 | 42.93836 | -71.43738 | 655 ft | 142 kts | 338° |
| 2026-04-26 05:03 | 42.94773 | -71.44263 | 1214 ft | 142 kts | 336° |
| 2026-04-26 05:04 | 42.95696 | -71.44674 | 1852 ft | 140 kts | 357° |
| 2026-04-26 05:04 | 42.96504 | -71.43982 | 2162 ft | 157 kts | 72° |
| 2026-04-26 05:04 | 42.96242 | -71.42639 | 2852 ft | 148 kts | 117° |
| 2026-04-26 05:04 | 42.95751 | -71.41312 | 3568 ft | 159 kts | 115° |
| 2026-04-26 05:05 | 42.95269 | -71.39997 | 4526 ft | 154 kts | 114° |
| 2026-04-26 05:05 | 42.94783 | -71.38696 | 5327 ft | 157 kts | 115° |
| 2026-04-26 05:05 | 42.94272 | -71.37302 | 5993 ft | 166 kts | 109° |
| 2026-04-26 05:05 | 42.94164 | -71.35740 | 6733 ft | 168 kts | 84° |
| 2026-04-26 05:06 | 42.94448 | -71.34197 | 7392 ft | 173 kts | 71° |
| 2026-04-26 05:06 | 42.94872 | -71.32635 | 8082 ft | 178 kts | 69° |
| 2026-04-26 05:06 | 42.95315 | -71.31037 | 8789 ft | 182 kts | 68° |
| 2026-04-26 05:06 | 42.95772 | -71.29394 | 9493 ft | 188 kts | 68° |
| 2026-04-26 05:07 | 42.96238 | -71.27705 | 10197 ft | 192 kts | 68° |
| 2026-04-26 05:07 | 42.96715 | -71.25985 | 10878 ft | 195 kts | 68° |
| 2026-04-26 05:07 | 42.97194 | -71.24245 | 11556 ft | 197 kts | 68° |
| 2026-04-26 05:07 | 42.97681 | -71.22487 | 12205 ft | 199 kts | 67° |
| 2026-04-26 05:08 | 42.98173 | -71.20709 | 12838 ft | 201 kts | 67° |
| 2026-04-26 05:08 | 42.98676 | -71.18887 | 13465 ft | 204 kts | 67° |
| 2026-04-26 05:08 | 42.99178 | -71.17069 | 14053 ft | 206 kts | 67° |
| 2026-04-26 05:08 | 42.99687 | -71.15223 | 14533 ft | 210 kts | 67° |
| 2026-04-26 05:09 | 43.00206 | -71.13342 | 15000 ft | 214 kts | 67° |
| 2026-04-26 05:09 | 43.00731 | -71.11425 | 15459 ft | 217 kts | 67° |
| 2026-04-26 05:09 | 43.01266 | -71.09474 | 15907 ft | 221 kts | 67° |
| 2026-04-26 05:09 | 43.01804 | -71.07516 | 16338 ft | 225 kts | 67° |
| 2026-04-26 05:10 | 43.02363 | -71.05473 | 16776 ft | 228 kts | 67° |
| 2026-04-26 05:10 | 43.02915 | -71.03462 | 17209 ft | 231 kts | 67° |
| 2026-04-26 05:10 | 43.03483 | -71.01396 | 17623 ft | 234 kts | 67° |
| 2026-04-26 05:10 | 43.04056 | -70.99298 | 18036 ft | 237 kts | 67° |
| 2026-04-26 05:11 | 43.04639 | -70.97172 | 18430 ft | 240 kts | 67° |
| 2026-04-26 05:11 | 43.05228 | -70.95020 | 18796 ft | 242 kts | 67° |
| 2026-04-26 05:11 | 43.05820 | -70.92856 | 19159 ft | 244 kts | 67° |
| 2026-04-26 05:11 | 43.06412 | -70.90681 | 19511 ft | 245 kts | 67° |
| 2026-04-26 05:12 | 43.07007 | -70.88490 | 19862 ft | 246 kts | 67° |
| 2026-04-26 05:12 | 43.07466 | -70.86227 | 20194 ft | 250 kts | 83° |
| 2026-04-26 05:12 | 43.07375 | -70.83861 | 20534 ft | 251 kts | 102° |
| 2026-04-26 05:12 | 43.06777 | -70.81630 | 20858 ft | 250 kts | 121° |
| 2026-04-26 05:13 | 43.05727 | -70.79753 | 21123 ft | 250 kts | 140° |
| 2026-04-26 05:13 | 43.04410 | -70.78114 | 21135 ft | 262 kts | 142° |
| 2026-04-26 05:13 | 43.03037 | -70.76390 | 21140 ft | 272 kts | 141° |
| 2026-04-26 05:13 | 43.01632 | -70.74603 | 21139 ft | 280 kts | 141° |
| 2026-04-26 05:14 | 43.00183 | -70.72778 | 21137 ft | 286 kts | 141° |
| 2026-04-26 05:14 | 42.98703 | -70.70916 | 21136 ft | 292 kts | 141° |
| 2026-04-26 05:14 | 42.97196 | -70.69020 | 21137 ft | 297 kts | 141° |
| 2026-04-26 05:14 | 42.95664 | -70.67098 | 21136 ft | 302 kts | 141° |
| 2026-04-26 05:15 | 42.94103 | -70.65139 | 21127 ft | 307 kts | 141° |
| 2026-04-26 05:15 | 42.92518 | -70.63151 | 21127 ft | 312 kts | 141° |
| 2026-04-26 05:15 | 42.90908 | -70.61131 | 21133 ft | 316 kts | 141° |
| 2026-04-26 05:15 | 42.89280 | -70.59091 | 21136 ft | 319 kts | 141° |
| 2026-04-26 05:16 | 42.87641 | -70.57039 | 21130 ft | 321 kts | 141° |
| 2026-04-26 05:16 | 42.85992 | -70.54972 | 21132 ft | 323 kts | 141° |
| 2026-04-26 05:16 | 42.84330 | -70.52896 | 21133 ft | 325 kts | 141° |
| 2026-04-26 05:16 | 42.82661 | -70.50810 | 21134 ft | 326 kts | 141° |
| 2026-04-26 05:17 | 42.80987 | -70.48719 | 21135 ft | 327 kts | 141° |
| 2026-04-26 05:17 | 42.79308 | -70.46624 | 21135 ft | 328 kts | 141° |
| 2026-04-26 05:17 | 42.77624 | -70.44530 | 21139 ft | 329 kts | 141° |
| 2026-04-26 05:17 | 42.75933 | -70.42425 | 21140 ft | 329 kts | 141° |
| 2026-04-26 05:18 | 42.74243 | -70.40320 | 21135 ft | 330 kts | 141° |
| 2026-04-26 05:18 | 42.72550 | -70.38217 | 21142 ft | 330 kts | 141° |
| 2026-04-26 05:18 | 42.70855 | -70.36112 | 21142 ft | 330 kts | 141° |
| 2026-04-26 05:18 | 42.69155 | -70.33999 | 21128 ft | 331 kts | 141° |
| 2026-04-26 05:19 | 42.67455 | -70.31891 | 21134 ft | 331 kts | 141° |
| 2026-04-26 05:19 | 42.65752 | -70.29778 | 21128 ft | 332 kts | 141° |
| 2026-04-26 05:19 | 42.64046 | -70.27664 | 21134 ft | 332 kts | 141° |
| 2026-04-26 05:19 | 42.62338 | -70.25552 | 21127 ft | 332 kts | 141° |
| 2026-04-26 05:20 | 42.60509 | -70.23695 | 21132 ft | 326 kts | 154° |
| 2026-04-26 05:20 | 42.58460 | -70.22453 | 21130 ft | 320 kts | 167° |
| 2026-04-26 05:20 | 42.56344 | -70.21727 | 21137 ft | 317 kts | 172° |
| 2026-04-26 05:20 | 42.54197 | -70.21019 | 21134 ft | 318 kts | 171° |
| 2026-04-26 05:21 | 42.52050 | -70.20292 | 21135 ft | 318 kts | 171° |
| 2026-04-26 05:21 | 42.49896 | -70.19578 | 21144 ft | 319 kts | 172° |
| 2026-04-26 05:21 | 42.47742 | -70.18868 | 21132 ft | 319 kts | 172° |
| 2026-04-26 05:21 | 42.45585 | -70.18151 | 21142 ft | 319 kts | 172° |
| 2026-04-26 05:22 | 42.43427 | -70.17436 | 21144 ft | 320 kts | 172° |
| 2026-04-26 05:22 | 42.41265 | -70.16719 | 21144 ft | 320 kts | 172° |
| 2026-04-26 05:22 | 42.39102 | -70.16004 | 21144 ft | 320 kts | 172° |
| 2026-04-26 05:22 | 42.36938 | -70.15289 | 21145 ft | 320 kts | 172° |
| 2026-04-26 05:23 | 42.34774 | -70.14575 | 21144 ft | 320 kts | 172° |
| 2026-04-26 05:23 | 42.32611 | -70.13863 | 21143 ft | 320 kts | 172° |
| 2026-04-26 05:23 | 42.30444 | -70.13148 | 21143 ft | 320 kts | 172° |
| 2026-04-26 05:23 | 42.28277 | -70.12435 | 21144 ft | 321 kts | 172° |
| 2026-04-26 05:24 | 42.26112 | -70.11723 | 21140 ft | 320 kts | 172° |
| 2026-04-26 05:24 | 42.23960 | -70.11011 | 20846 ft | 311 kts | 172° |
| 2026-04-26 05:24 | 42.21851 | -70.10315 | 19378 ft | 317 kts | 172° |
| 2026-04-26 05:24 | 42.19754 | -70.09630 | 18988 ft | 304 kts | 171° |
| 2026-04-26 05:25 | 42.17669 | -70.08946 | 19006 ft | 311 kts | 172° |
| 2026-04-26 05:25 | 42.15563 | -70.08259 | 19009 ft | 312 kts | 171° |
| 2026-04-26 05:25 | 42.13470 | -70.07566 | 18442 ft | 305 kts | 171° |
| 2026-04-26 05:25 | 42.11386 | -70.06884 | 17423 ft | 299 kts | 171° |
| 2026-04-26 05:26 | 42.09369 | -70.06222 | 17314 ft | 306 kts | 171° |
| 2026-04-26 05:26 | 42.07257 | -70.05541 | 16943 ft | 319 kts | 170° |
| 2026-04-26 05:26 | 42.05088 | -70.04829 | 16511 ft | 322 kts | 170° |
| 2026-04-26 05:26 | 42.02913 | -70.04112 | 16087 ft | 321 kts | 169° |
| 2026-04-26 05:27 | 42.00745 | -70.03461 | 15668 ft | 316 kts | 172° |
| 2026-04-26 05:27 | 41.98587 | -70.02918 | 15251 ft | 315 kts | 172° |
| 2026-04-26 05:27 | 41.96441 | -70.02370 | 14839 ft | 314 kts | 172° |
| 2026-04-26 05:27 | 41.94308 | -70.01817 | 14428 ft | 311 kts | 172° |
| 2026-04-26 05:28 | 41.92193 | -70.01272 | 14022 ft | 308 kts | 171° |
| 2026-04-26 05:28 | 41.90093 | -70.00734 | 13585 ft | 306 kts | 171° |
| 2026-04-26 05:28 | 41.88010 | -70.00200 | 13182 ft | 303 kts | 171° |
| 2026-04-26 05:28 | 41.85943 | -69.99668 | 12783 ft | 301 kts | 171° |
| 2026-04-26 05:29 | 41.83896 | -69.99143 | 12385 ft | 298 kts | 172° |
| 2026-04-26 05:29 | 41.81867 | -69.98623 | 11999 ft | 297 kts | 171° |
| 2026-04-26 05:29 | 41.79846 | -69.98110 | 11611 ft | 295 kts | 171° |
| 2026-04-26 05:29 | 41.77829 | -69.97593 | 11223 ft | 294 kts | 171° |
| 2026-04-26 05:30 | 41.75825 | -69.97080 | 10838 ft | 293 kts | 171° |
| 2026-04-26 05:30 | 41.73829 | -69.96572 | 10453 ft | 291 kts | 170° |
| 2026-04-26 05:30 | 41.71851 | -69.96066 | 10074 ft | 288 kts | 170° |
| 2026-04-26 05:30 | 41.69916 | -69.95573 | 9678 ft | 285 kts | 170° |
| 2026-04-26 05:31 | 41.67986 | -69.95080 | 9304 ft | 280 kts | 169° |
| 2026-04-26 05:31 | 41.66081 | -69.94594 | 8936 ft | 278 kts | 170° |
| 2026-04-26 05:31 | 41.64159 | -69.94105 | 8563 ft | 277 kts | 170° |
| 2026-04-26 05:31 | 41.62278 | -69.93624 | 8200 ft | 275 kts | 170° |
| 2026-04-26 05:32 | 41.60427 | -69.93155 | 7842 ft | 273 kts | 170° |
| 2026-04-26 05:32 | 41.58542 | -69.92675 | 7473 ft | 271 kts | 170° |
| 2026-04-26 05:32 | 41.56717 | -69.92213 | 7006 ft | 267 kts | 170° |
| 2026-04-26 05:32 | 41.54908 | -69.91753 | 6634 ft | 263 kts | 170° |
| 2026-04-26 05:33 | 41.53114 | -69.91299 | 6272 ft | 261 kts | 170° |
| 2026-04-26 05:33 | 41.51347 | -69.90852 | 5921 ft | 250 kts | 169° |
| 2026-04-26 05:33 | 41.49709 | -69.90435 | 5616 ft | 229 kts | 169° |
| 2026-04-26 05:33 | 41.48222 | -69.90060 | 5335 ft | 207 kts | 169° |
| 2026-04-26 05:34 | 41.46888 | -69.89722 | 5103 ft | 185 kts | 168° |
| 2026-04-26 05:34 | 41.45678 | -69.89417 | 4878 ft | 170 kts | 168° |
| 2026-04-26 05:34 | 41.44551 | -69.89131 | 4664 ft | 160 kts | 167° |
| 2026-04-26 05:34 | 41.43482 | -69.88861 | 4461 ft | 153 kts | 167° |
| 2026-04-26 05:35 | 41.42452 | -69.88600 | 4270 ft | 148 kts | 168° |
| 2026-04-26 05:35 | 41.41489 | -69.88357 | 4093 ft | 136 kts | 168° |
| 2026-04-26 05:35 | 41.40551 | -69.88117 | 3910 ft | 139 kts | 167° |
| 2026-04-26 05:35 | 41.39577 | -69.88048 | 3721 ft | 144 kts | 189° |
| 2026-04-26 05:36 | 41.38673 | -69.88641 | 3530 ft | 148 kts | 217° |
| 2026-04-26 05:36 | 41.37948 | -69.89634 | 3335 ft | 150 kts | 223° |
| 2026-04-26 05:36 | 41.37210 | -69.90617 | 3132 ft | 150 kts | 222° |
| 2026-04-26 05:36 | 41.36475 | -69.91596 | 2933 ft | 149 kts | 223° |
| 2026-04-26 05:37 | 41.35742 | -69.92560 | 2734 ft | 147 kts | 219° |
| 2026-04-26 05:37 | 41.34812 | -69.92904 | 2498 ft | 142 kts | 165° |
| 2026-04-26 05:37 | 41.33969 | -69.92306 | 2294 ft | 137 kts | 134° |
| 2026-04-26 05:37 | 41.33557 | -69.91194 | 2083 ft | 135 kts | 98° |
| 2026-04-26 05:38 | 41.33712 | -69.89998 | 1996 ft | 132 kts | 63° |
| 2026-04-26 05:38 | 41.34370 | -69.89136 | 1998 ft | 138 kts | 27° |
| 2026-04-26 05:38 | 41.35317 | -69.88988 | 1996 ft | 141 kts | 350° |
| 2026-04-26 05:38 | 41.36143 | -69.89680 | 1991 ft | 145 kts | 309° |
| 2026-04-26 05:39 | 41.36449 | -69.90935 | 1992 ft | 146 kts | 268° |
| 2026-04-26 05:39 | 41.35998 | -69.92084 | 1992 ft | 143 kts | 223° |
| 2026-04-26 05:39 | 41.35309 | -69.93061 | 2007 ft | 146 kts | 227° |
| 2026-04-26 05:39 | 41.34630 | -69.94022 | 2005 ft | 139 kts | 224° |
| 2026-04-26 05:40 | 41.33965 | -69.94933 | 1995 ft | 136 kts | 224° |
| 2026-04-26 05:40 | 41.33293 | -69.95811 | 1993 ft | 134 kts | 223° |
| 2026-04-26 05:40 | 41.32640 | -69.96698 | 1968 ft | 135 kts | 223° |
| 2026-04-26 05:40 | 41.31960 | -69.97584 | 1807 ft | 137 kts | 224° |
| 2026-04-26 05:41 | 41.31301 | -69.98481 | 1615 ft | 133 kts | 224° |
| 2026-04-26 05:41 | 41.30658 | -69.99316 | 1431 ft | 126 kts | 224° |
| 2026-04-26 05:41 | 41.30058 | -70.00133 | 1258 ft | 122 kts | 224° |
| 2026-04-26 05:41 | 41.29459 | -70.00913 | 1092 ft | 120 kts | 224° |
| 2026-04-26 05:42 | 41.28873 | -70.01707 | 918 ft | 120 kts | 223° |
| 2026-04-26 05:42 | 41.28277 | -70.02485 | 747 ft | 120 kts | 225° |
| 2026-04-26 05:42 | 41.27690 | -70.03277 | 579 ft | 120 kts | 223° |
| 2026-04-26 05:42 | 41.27101 | -70.04052 | 423 ft | 119 kts | 224° |
| 2026-04-26 05:43 | 41.26519 | -70.04829 | 263 ft | 117 kts | 223° |
| 2026-04-26 05:43 | 41.25954 | -70.05585 | 110 ft | 112 kts | 223° |
| 2026-04-26 05:43 | 41.25434 | -70.06262 | 39 ft | 91 kts | 221° |
| 2026-04-26 05:43 | 41.25215 | -70.06563 | 36 ft | 26 kts | 230° |
| 2026-04-26 05:44 | 41.25169 | -70.06681 | 36 ft | 10 kts | 308° |
| 2026-04-26 05:44 | 41.25203 | -70.06727 | 37 ft | 0 kts | 316° |
| 2026-04-26 05:44 | 41.25204 | -70.06727 | 37 ft | 0 kts | 316° |
| 2026-04-26 05:45 | 41.25218 | -70.06757 | 37 ft | 8 kts | 283° |
| 2026-04-26 05:45 | 41.25235 | -70.06807 | 37 ft | 6 kts | 316° |
| 2026-04-26 05:45 | 41.25277 | -70.06828 | 37 ft | 6 kts | 41° |
| 2026-04-26 05:45 | 41.25302 | -70.06809 | 37 ft | 3 kts | 321° |
| 2026-04-26 05:46 | 41.25313 | -70.06825 | 37 ft | 0 kts | 315° |